sensor_id;sensor_type;location;lat;lon;timestamp;pressure;altitude;pressure_sealevel;temperature;humidity
45345;BME280;31078;48.304;11.896;2023-08-20T00:02:18;72793.13;;;-145.00;56.05
45345;BME280;31078;48.304;11.896;2023-08-20T00:04:49;72801.47;;;-145.00;56.21
45345;BME280;31078;48.304;11.896;2023-08-20T00:07:17;72805.63;;;-145.00;56.31
45345;BME280;31078;48.304;11.896;2023-08-20T00:09:44;72799.38;;;-145.00;56.65
45345;BME280;31078;48.304;11.896;2023-08-20T00:12:10;72799.38;;;-145.00;56.64
45345;BME280;31078;48.304;11.896;2023-08-20T00:14:55;72793.13;;;-145.00;56.42
45345;BME280;31078;48.304;11.896;2023-08-20T00:17:24;72803.53;;;-145.00;56.73
45345;BME280;31078;48.304;11.896;2023-08-20T00:19:52;72805.63;;;-145.00;56.90
45345;BME280;31078;48.304;11.896;2023-08-20T00:22:21;72805.63;;;-145.00;56.79
45345;BME280;31078;48.304;11.896;2023-08-20T00:24:48;72818.13;;;-145.00;56.87
45345;BME280;31078;48.304;11.896;2023-08-20T00:27:14;72832.69;;;-145.00;57.11
45345;BME280;31078;48.304;11.896;2023-08-20T00:29:41;72834.78;;;-145.00;57.36
45345;BME280;31078;48.304;11.896;2023-08-20T00:32:09;72838.94;;;-145.00;57.61
45345;BME280;31078;48.304;11.896;2023-08-20T00:34:35;72834.78;;;-145.00;57.59
45345;BME280;31078;48.304;11.896;2023-08-20T00:37:02;72847.25;;;-145.00;57.98
45345;BME280;31078;48.304;11.896;2023-08-20T00:39:29;72863.91;;;-145.00;58.15
45345;BME280;31078;48.304;11.896;2023-08-20T00:41:57;72863.91;;;-145.00;58.13
45345;BME280;31078;48.304;11.896;2023-08-20T00:44:23;72855.59;;;-145.00;58.76
45345;BME280;31078;48.304;11.896;2023-08-20T00:46:50;72855.59;;;-145.00;58.06
45345;BME280;31078;48.304;11.896;2023-08-20T00:49:18;72855.59;;;-145.00;58.28
45345;BME280;31078;48.304;11.896;2023-08-20T00:51:45;72863.91;;;-145.00;58.24
45345;BME280;31078;48.304;11.896;2023-08-20T00:54:12;72863.91;;;-145.00;58.35
45345;BME280;31078;48.304;11.896;2023-08-20T00:56:38;72866.00;;;-145.00;58.17
45345;BME280;31078;48.304;11.896;2023-08-20T00:59:05;72872.25;;;-145.00;58.38
45345;BME280;31078;48.304;11.896;2023-08-20T01:01:32;72880.56;;;-145.00;58.52
45345;BME280;31078;48.304;11.896;2023-08-20T01:03:58;72872.25;;;-145.00;58.88
45345;BME280;31078;48.304;11.896;2023-08-20T01:06:33;72876.41;;;-145.00;58.85
45345;BME280;31078;48.304;11.896;2023-08-20T01:09:06;72882.66;;;-145.00;58.96
45345;BME280;31078;48.304;11.896;2023-08-20T01:11:37;72915.97;;;-145.00;59.80
45345;BME280;31078;48.304;11.896;2023-08-20T01:14:14;72903.47;;;-145.00;59.75
45345;BME280;31078;48.304;11.896;2023-08-20T01:16:41;72888.91;;;-145.00;59.53
45345;BME280;31078;48.304;11.896;2023-08-20T01:19:09;72893.06;;;-145.00;59.17
45345;BME280;31078;48.304;11.896;2023-08-20T01:21:39;72899.31;;;-145.00;59.46
45345;BME280;31078;48.304;11.896;2023-08-20T01:24:17;72907.63;;;-145.00;59.59
45345;BME280;31078;48.304;11.896;2023-08-20T01:26:59;72909.72;;;-145.00;59.80
45345;BME280;31078;48.304;11.896;2023-08-20T01:29:28;72913.88;;;-145.00;59.81
45345;BME280;31078;48.304;11.896;2023-08-20T01:31:55;72928.44;;;-145.00;60.08
45345;BME280;31078;48.304;11.896;2023-08-20T01:34:22;72928.44;;;-145.00;60.26
45345;BME280;31078;48.304;11.896;2023-08-20T01:36:49;72936.78;;;-145.00;60.43
45345;BME280;31078;48.304;11.896;2023-08-20T01:39:16;72943.03;;;-145.00;60.57
45345;BME280;31078;48.304;11.896;2023-08-20T01:41:43;72938.88;;;-145.00;60.41
45345;BME280;31078;48.304;11.896;2023-08-20T01:44:10;72947.19;;;-145.00;60.66
45345;BME280;31078;48.304;11.896;2023-08-20T01:46:38;72951.34;;;-145.00;60.56
45345;BME280;31078;48.304;11.896;2023-08-20T01:49:04;72947.19;;;-145.00;60.68
45345;BME280;31078;48.304;11.896;2023-08-20T01:51:31;72947.19;;;-145.00;60.64
45345;BME280;31078;48.304;11.896;2023-08-20T01:53:57;72943.03;;;-145.00;60.43
45345;BME280;31078;48.304;11.896;2023-08-20T01:56:24;72947.19;;;-145.00;60.58
45345;BME280;31078;48.304;11.896;2023-08-20T01:58:50;72947.19;;;-145.00;60.44
45345;BME280;31078;48.304;11.896;2023-08-20T02:01:17;72945.09;;;-145.00;60.69
45345;BME280;31078;48.304;11.896;2023-08-20T02:03:45;72945.09;;;-145.00;60.73
45345;BME280;31078;48.304;11.896;2023-08-20T02:06:12;72943.03;;;-145.00;60.35
45345;BME280;31078;48.304;11.896;2023-08-20T02:08:38;72943.03;;;-145.00;60.61
45345;BME280;31078;48.304;11.896;2023-08-20T02:11:05;72943.03;;;-145.00;60.78
45345;BME280;31078;48.304;11.896;2023-08-20T02:13:31;72947.19;;;-145.00;60.58
45345;BME280;31078;48.304;11.896;2023-08-20T02:15:59;72943.03;;;-145.00;60.84
45345;BME280;31078;48.304;11.896;2023-08-20T02:18:26;72938.88;;;-145.00;60.62
45345;BME280;31078;48.304;11.896;2023-08-20T02:20:54;72943.03;;;-145.00;60.65
45345;BME280;31078;48.304;11.896;2023-08-20T02:23:20;72959.69;;;-145.00;60.88
45345;BME280;31078;48.304;11.896;2023-08-20T02:25:47;72970.09;;;-145.00;61.19
45345;BME280;31078;48.304;11.896;2023-08-20T02:28:14;72978.41;;;-145.00;61.24
45345;BME280;31078;48.304;11.896;2023-08-20T02:30:41;72980.50;;;-145.00;61.31
45345;BME280;31078;48.304;11.896;2023-08-20T02:33:08;72980.50;;;-145.00;61.19
45345;BME280;31078;48.304;11.896;2023-08-20T02:35:35;72978.41;;;-145.00;60.83
45345;BME280;31078;48.304;11.896;2023-08-20T02:38:03;72972.16;;;-145.00;61.02
45345;BME280;31078;48.304;11.896;2023-08-20T02:40:30;72974.25;;;-145.00;60.79
45345;BME280;31078;48.304;11.896;2023-08-20T02:42:56;72972.16;;;-145.00;60.57
45345;BME280;31078;48.304;11.896;2023-08-20T02:45:23;72976.34;;;-145.00;60.72
45345;BME280;31078;48.304;11.896;2023-08-20T02:47:50;72972.16;;;-145.00;60.78
45345;BME280;31078;48.304;11.896;2023-08-20T02:50:17;72976.34;;;-145.00;60.65
45345;BME280;31078;48.304;11.896;2023-08-20T02:52:44;72980.50;;;-145.00;60.51
45345;BME280;31078;48.304;11.896;2023-08-20T02:55:12;72980.50;;;-145.00;60.83
45345;BME280;31078;48.304;11.896;2023-08-20T02:57:39;72982.59;;;-145.00;61.01
45345;BME280;31078;48.304;11.896;2023-08-20T03:00:07;72982.59;;;-145.00;60.75
45345;BME280;31078;48.304;11.896;2023-08-20T03:02:36;72986.75;;;-145.00;61.10
45345;BME280;31078;48.304;11.896;2023-08-20T03:05:05;72993.00;;;-145.00;61.44
45345;BME280;31078;48.304;11.896;2023-08-20T03:07:32;72993.00;;;-145.00;61.72
45345;BME280;31078;48.304;11.896;2023-08-20T03:09:58;72993.00;;;-145.00;61.84
45345;BME280;31078;48.304;11.896;2023-08-20T03:12:26;73009.66;;;-145.00;61.98
45345;BME280;31078;48.304;11.896;2023-08-20T03:14:52;73034.63;;;-145.00;62.36
45345;BME280;31078;48.304;11.896;2023-08-20T03:17:19;73055.44;;;-145.00;62.73
45345;BME280;31078;48.304;11.896;2023-08-20T03:19:54;73059.59;;;-145.00;62.98
45345;BME280;31078;48.304;11.896;2023-08-20T03:22:21;73047.13;;;-145.00;62.14
45345;BME280;31078;48.304;11.896;2023-08-20T03:24:48;73034.63;;;-145.00;61.87
45345;BME280;31078;48.304;11.896;2023-08-20T03:27:15;73034.63;;;-145.00;61.68
45345;BME280;31078;48.304;11.896;2023-08-20T03:29:43;73038.78;;;-145.00;61.86
45345;BME280;31078;48.304;11.896;2023-08-20T03:32:09;73038.78;;;-145.00;61.99
45345;BME280;31078;48.304;11.896;2023-08-20T03:34:36;73045.03;;;-145.00;62.14
45345;BME280;31078;48.304;11.896;2023-08-20T03:37:03;73055.44;;;-145.00;62.29
45345;BME280;31078;48.304;11.896;2023-08-20T03:39:29;73051.28;;;-145.00;62.29
45345;BME280;31078;48.304;11.896;2023-08-20T03:41:56;73051.28;;;-145.00;62.16
45345;BME280;31078;48.304;11.896;2023-08-20T03:44:23;73051.28;;;-145.00;62.19
45345;BME280;31078;48.304;11.896;2023-08-20T03:46:51;73053.38;;;-145.00;62.37
45345;BME280;31078;48.304;11.896;2023-08-20T03:49:18;73051.28;;;-145.00;62.29
45345;BME280;31078;48.304;11.896;2023-08-20T03:51:44;73061.69;;;-145.00;62.29
45345;BME280;31078;48.304;11.896;2023-08-20T03:54:10;73067.94;;;-145.00;62.27
45345;BME280;31078;48.304;11.896;2023-08-20T03:56:37;73072.09;;;-145.00;62.42
45345;BME280;31078;48.304;11.896;2023-08-20T03:59:03;73067.94;;;-145.00;62.56
45345;BME280;31078;48.304;11.896;2023-08-20T04:01:30;73061.69;;;-145.00;62.51
45345;BME280;31078;48.304;11.896;2023-08-20T04:03:58;73063.78;;;-145.00;62.65
45345;BME280;31078;48.304;11.896;2023-08-20T04:06:24;73063.78;;;-145.00;62.34
45345;BME280;31078;48.304;11.896;2023-08-20T04:08:51;73059.59;;;-145.00;62.20
45345;BME280;31078;48.304;11.896;2023-08-20T04:11:17;73057.53;;;-145.00;62.17
45345;BME280;31078;48.304;11.896;2023-08-20T04:13:44;73055.44;;;-145.00;61.97
45345;BME280;31078;48.304;11.896;2023-08-20T04:16:10;73055.44;;;-145.00;61.79
45345;BME280;31078;48.304;11.896;2023-08-20T04:18:37;73055.44;;;-145.00;61.50
45345;BME280;31078;48.304;11.896;2023-08-20T04:21:05;73051.28;;;-145.00;61.84
45345;BME280;31078;48.304;11.896;2023-08-20T04:23:32;73051.28;;;-145.00;61.85
45345;BME280;31078;48.304;11.896;2023-08-20T04:25:58;73065.84;;;-145.00;62.01
45345;BME280;31078;48.304;11.896;2023-08-20T04:28:25;73057.53;;;-145.00;61.85
45345;BME280;31078;48.304;11.896;2023-08-20T04:30:52;73047.13;;;-145.00;61.96
45345;BME280;31078;48.304;11.896;2023-08-20T04:33:19;73045.03;;;-145.00;62.12
45345;BME280;31078;48.304;11.896;2023-08-20T04:35:46;73042.97;;;-145.00;61.94
45345;BME280;31078;48.304;11.896;2023-08-20T04:38:14;73034.63;;;-145.00;61.99
45345;BME280;31078;48.304;11.896;2023-08-20T04:40:40;73036.72;;;-145.00;61.29
45345;BME280;31078;48.304;11.896;2023-08-20T04:43:07;73038.78;;;-145.00;61.23
45345;BME280;31078;48.304;11.896;2023-08-20T04:45:33;73042.97;;;-145.00;61.28
45345;BME280;31078;48.304;11.896;2023-08-20T04:48:00;73038.78;;;-145.00;61.48
45345;BME280;31078;48.304;11.896;2023-08-20T04:50:26;73038.78;;;-145.00;61.42
45345;BME280;31078;48.304;11.896;2023-08-20T04:52:53;73038.78;;;-145.00;61.49
45345;BME280;31078;48.304;11.896;2023-08-20T04:55:21;73038.78;;;-145.00;61.18
45345;BME280;31078;48.304;11.896;2023-08-20T04:57:48;73040.88;;;-145.00;60.96
45345;BME280;31078;48.304;11.896;2023-08-20T05:00:15;73034.63;;;-145.00;61.21
45345;BME280;31078;48.304;11.896;2023-08-20T05:02:42;73034.63;;;-145.00;61.19
45345;BME280;31078;48.304;11.896;2023-08-20T05:05:08;73026.31;;;-145.00;60.87
45345;BME280;31078;48.304;11.896;2023-08-20T05:07:35;73038.78;;;-145.00;60.77
45345;BME280;31078;48.304;11.896;2023-08-20T05:10:01;73049.19;;;-145.00;60.92
45345;BME280;31078;48.304;11.896;2023-08-20T05:12:29;73051.28;;;-145.00;60.89
45345;BME280;31078;48.304;11.896;2023-08-20T05:14:56;73045.03;;;-145.00;60.80
45345;BME280;31078;48.304;11.896;2023-08-20T05:17:22;73038.78;;;-145.00;60.67
45345;BME280;31078;48.304;11.896;2023-08-20T05:19:49;73063.78;;;-145.00;60.83
45345;BME280;31078;48.304;11.896;2023-08-20T05:22:15;73055.44;;;-145.00;60.26
45345;BME280;31078;48.304;11.896;2023-08-20T05:24:42;73042.97;;;-145.00;59.99
45345;BME280;31078;48.304;11.896;2023-08-20T05:27:10;73047.13;;;-145.00;60.46
45345;BME280;31078;48.304;11.896;2023-08-20T05:29:40;73038.78;;;-145.00;60.44
45345;BME280;31078;48.304;11.896;2023-08-20T05:32:07;73047.13;;;-145.00;61.10
45345;BME280;31078;48.304;11.896;2023-08-20T05:34:34;73034.63;;;-145.00;61.48
45345;BME280;31078;48.304;11.896;2023-08-20T05:37:01;73030.47;;;-145.00;61.36
45345;BME280;31078;48.304;11.896;2023-08-20T05:39:30;73030.47;;;-145.00;61.51
45345;BME280;31078;48.304;11.896;2023-08-20T05:41:57;73030.47;;;-145.00;60.61
45345;BME280;31078;48.304;11.896;2023-08-20T05:44:23;73038.78;;;-145.00;58.35
45345;BME280;31078;48.304;11.896;2023-08-20T05:46:51;73030.47;;;-145.00;57.89
45345;BME280;31078;48.304;11.896;2023-08-20T05:49:17;73022.13;;;-145.00;57.37
45345;BME280;31078;48.304;11.896;2023-08-20T05:51:44;73017.97;;;-145.00;56.72
45345;BME280;31078;48.304;11.896;2023-08-20T05:54:11;73001.31;;;-145.00;55.83
45345;BME280;31078;48.304;11.896;2023-08-20T05:56:37;72999.22;;;-145.00;56.12
45345;BME280;31078;48.304;11.896;2023-08-20T05:59:04;73001.31;;;-145.00;55.13
45345;BME280;31078;48.304;11.896;2023-08-20T06:01:31;72993.00;;;-145.00;54.84
45345;BME280;31078;48.304;11.896;2023-08-20T06:03:59;72984.66;;;-145.00;54.50
45345;BME280;31078;48.304;11.896;2023-08-20T06:06:26;72986.75;;;-145.00;54.04
45345;BME280;31078;48.304;11.896;2023-08-20T06:08:53;72982.59;;;-145.00;54.23
45345;BME280;31078;48.304;11.896;2023-08-20T06:11:20;72972.16;;;-145.00;53.91
45345;BME280;31078;48.304;11.896;2023-08-20T06:13:47;72976.34;;;-145.00;53.18
45345;BME280;31078;48.304;11.896;2023-08-20T06:16:13;72959.69;;;-145.00;52.63
45345;BME280;31078;48.304;11.896;2023-08-20T06:18:40;72955.50;;;-145.00;52.25
45345;BME280;31078;48.304;11.896;2023-08-20T06:21:07;72943.03;;;-145.00;51.91
45345;BME280;31078;48.304;11.896;2023-08-20T06:23:34;72928.44;;;-145.00;52.35
45345;BME280;31078;48.304;11.896;2023-08-20T06:26:00;72918.03;;;-145.00;51.87
45345;BME280;31078;48.304;11.896;2023-08-20T06:28:27;72907.63;;;-145.00;51.44
45345;BME280;31078;48.304;11.896;2023-08-20T06:30:53;72893.06;;;-145.00;52.29
45345;BME280;31078;48.304;11.896;2023-08-20T06:33:20;72895.16;;;-145.00;50.51
45345;BME280;31078;48.304;11.896;2023-08-20T06:35:46;72880.56;;;-145.00;50.45
45345;BME280;31078;48.304;11.896;2023-08-20T06:38:14;72868.09;;;-145.00;50.05
45345;BME280;31078;48.304;11.896;2023-08-20T06:40:41;72859.75;;;-145.00;49.91
45345;BME280;31078;48.304;11.896;2023-08-20T06:43:07;72851.44;;;-145.00;50.13
45345;BME280;31078;48.304;11.896;2023-08-20T06:45:34;72838.94;;;-145.00;50.64
45345;BME280;31078;48.304;11.896;2023-08-20T06:48:00;72832.69;;;-145.00;49.80
45345;BME280;31078;48.304;11.896;2023-08-20T06:50:27;72824.38;;;-145.00;49.38
45345;BME280;31078;48.304;11.896;2023-08-20T06:52:53;72813.94;;;-145.00;49.96
45345;BME280;31078;48.304;11.896;2023-08-20T06:55:21;72801.47;;;-145.00;50.23
45345;BME280;31078;48.304;11.896;2023-08-20T06:57:48;72780.66;;;-145.00;50.13
45345;BME280;31078;48.304;11.896;2023-08-20T07:00:15;72791.06;;;-145.00;49.61
45345;BME280;31078;48.304;11.896;2023-08-20T07:02:41;72776.47;;;-145.00;49.11
45345;BME280;31078;48.304;11.896;2023-08-20T07:05:08;72786.88;;;-145.00;49.64
45345;BME280;31078;48.304;11.896;2023-08-20T07:07:35;72801.47;;;-145.00;49.89
45345;BME280;31078;48.304;11.896;2023-08-20T07:10:02;72768.16;;;-145.00;50.37
45345;BME280;31078;48.304;11.896;2023-08-20T07:12:30;72741.09;;;-145.00;50.16
45345;BME280;31078;48.304;11.896;2023-08-20T07:14:57;72716.13;;;-145.00;49.25
45345;BME280;31078;48.304;11.896;2023-08-20T07:17:23;72701.53;;;-145.00;48.51
45345;BME280;31078;48.304;11.896;2023-08-20T07:19:50;72676.56;;;-145.00;48.24
45345;BME280;31078;48.304;11.896;2023-08-20T07:22:17;72651.59;;;-145.00;47.63
45345;BME280;31078;48.304;11.896;2023-08-20T07:24:43;72639.09;;;-145.00;47.50
45345;BME280;31078;48.304;11.896;2023-08-20T07:27:10;72641.16;;;-145.00;48.56
45345;BME280;31078;48.304;11.896;2023-08-20T07:29:39;72647.41;;;-145.00;47.65
45345;BME280;31078;48.304;11.896;2023-08-20T07:32:06;72616.19;;;-145.00;47.11
45345;BME280;31078;48.304;11.896;2023-08-20T07:34:33;72543.34;;;-145.00;47.24
45345;BME280;31078;48.304;11.896;2023-08-20T07:36:59;72522.53;;;-145.00;44.91
45345;BME280;31078;48.304;11.896;2023-08-20T07:39:26;72512.09;;;-145.00;45.35
45345;BME280;31078;48.304;11.896;2023-08-20T07:41:53;72493.38;;;-145.00;44.59
45345;BME280;31078;48.304;11.896;2023-08-20T07:44:19;72455.91;;;-145.00;43.30
45345;BME280;31078;48.304;11.896;2023-08-20T07:46:47;72393.47;;;-145.00;43.68
45345;BME280;31078;48.304;11.896;2023-08-20T07:49:14;72297.72;;;-145.00;43.11
45345;BME280;31078;48.304;11.896;2023-08-20T07:51:40;72229.03;;;-145.00;43.99
45345;BME280;31078;48.304;11.896;2023-08-20T07:54:07;72177.00;;;-145.00;41.97
45345;BME280;31078;48.304;11.896;2023-08-20T07:56:33;72129.13;;;-145.00;40.32
45345;BME280;31078;48.304;11.896;2023-08-20T07:59:00;72106.22;;;-145.00;40.28
45345;BME280;31078;48.304;11.896;2023-08-20T08:01:26;72112.47;;;-145.00;39.46
45345;BME280;31078;48.304;11.896;2023-08-20T08:03:54;72139.53;;;-145.00;40.17
45345;BME280;31078;48.304;11.896;2023-08-20T08:06:20;72129.13;;;-145.00;40.13
45345;BME280;31078;48.304;11.896;2023-08-20T08:08:49;72116.63;;;-145.00;39.87
45345;BME280;31078;48.304;11.896;2023-08-20T08:11:15;72050.03;;;-145.00;39.72
45345;BME280;31078;48.304;11.896;2023-08-20T08:13:42;71981.34;;;-145.00;37.33
45345;BME280;31078;48.304;11.896;2023-08-20T08:16:08;71945.94;;;-145.00;37.07
45345;BME280;31078;48.304;11.896;2023-08-20T08:18:35;71908.50;;;-145.00;35.53
45345;BME280;31078;48.304;11.896;2023-08-20T08:21:03;71923.06;;;-145.00;35.50
45345;BME280;31078;48.304;11.896;2023-08-20T08:23:29;71881.44;;;-145.00;36.45
45345;BME280;31078;48.304;11.896;2023-08-20T08:25:55;71852.28;;;-145.00;34.37
45345;BME280;31078;48.304;11.896;2023-08-20T08:28:22;71839.81;;;-145.00;35.04
45345;BME280;31078;48.304;11.896;2023-08-20T08:30:48;71839.81;;;-145.00;35.32
45345;BME280;31078;48.304;11.896;2023-08-20T08:33:15;71802.34;;;-145.00;32.81
45345;BME280;31078;48.304;11.896;2023-08-20T08:35:41;71833.56;;;-145.00;33.06
45345;BME280;31078;48.304;11.896;2023-08-20T08:38:09;71802.34;;;-145.00;33.72
45345;BME280;31078;48.304;11.896;2023-08-20T08:40:36;71804.44;;;-145.00;33.69
45345;BME280;31078;48.304;11.896;2023-08-20T08:43:03;71785.69;;;-145.00;34.17
45345;BME280;31078;48.304;11.896;2023-08-20T08:45:30;71783.63;;;-145.00;35.22
45345;BME280;31078;48.304;11.896;2023-08-20T08:47:56;71785.69;;;-145.00;34.62
45345;BME280;31078;48.304;11.896;2023-08-20T08:50:23;71756.56;;;-145.00;34.23
45345;BME280;31078;48.304;11.896;2023-08-20T08:52:50;71769.03;;;-145.00;33.78
45345;BME280;31078;48.304;11.896;2023-08-20T08:55:19;71760.72;;;-145.00;33.93
45345;BME280;31078;48.304;11.896;2023-08-20T08:57:45;71744.06;;;-145.00;33.89
45345;BME280;31078;48.304;11.896;2023-08-20T09:00:13;71729.50;;;-145.00;34.25
45345;BME280;31078;48.304;11.896;2023-08-20T09:02:40;71781.53;;;-145.00;35.00
45345;BME280;31078;48.304;11.896;2023-08-20T09:05:07;71727.41;;;-145.00;35.00
45345;BME280;31078;48.304;11.896;2023-08-20T09:07:33;71696.22;;;-145.00;34.09
45345;BME280;31078;48.304;11.896;2023-08-20T09:10:00;71681.63;;;-145.00;34.83
45345;BME280;31078;48.304;11.896;2023-08-20T09:12:28;71671.22;;;-145.00;33.25
45345;BME280;31078;48.304;11.896;2023-08-20T09:14:55;71665.00;;;-145.00;34.29
45345;BME280;31078;48.304;11.896;2023-08-20T09:17:26;71652.50;;;-145.00;34.64
45345;BME280;31078;48.304;11.896;2023-08-20T09:19:54;71644.19;;;-145.00;33.28
45345;BME280;31078;48.304;11.896;2023-08-20T09:22:22;71656.66;;;-145.00;33.10
45345;BME280;31078;48.304;11.896;2023-08-20T09:24:52;71619.19;;;-145.00;33.09
45345;BME280;31078;48.304;11.896;2023-08-20T09:27:20;71652.50;;;-145.00;33.41
45345;BME280;31078;48.304;11.896;2023-08-20T09:29:49;71606.72;;;-145.00;33.46
45345;BME280;31078;48.304;11.896;2023-08-20T09:32:16;71577.59;;;-145.00;32.96
45345;BME280;31078;48.304;11.896;2023-08-20T09:34:43;71573.41;;;-145.00;32.78
45345;BME280;31078;48.304;11.896;2023-08-20T09:37:11;71602.56;;;-145.00;32.30
45345;BME280;31078;48.304;11.896;2023-08-20T09:39:38;71567.19;;;-145.00;33.71
45345;BME280;31078;48.304;11.896;2023-08-20T09:42:06;71552.59;;;-145.00;33.65
45345;BME280;31078;48.304;11.896;2023-08-20T09:44:34;71610.88;;;-145.00;32.49
45345;BME280;31078;48.304;11.896;2023-08-20T09:47:07;71600.47;;;-145.00;32.42
45345;BME280;31078;48.304;11.896;2023-08-20T09:49:37;71635.84;;;-145.00;33.81
45345;BME280;31078;48.304;11.896;2023-08-20T09:52:04;71602.56;;;-145.00;33.09
45345;BME280;31078;48.304;11.896;2023-08-20T09:54:39;71606.72;;;-145.00;34.23
45345;BME280;31078;48.304;11.896;2023-08-20T09:57:14;71610.88;;;-145.00;33.88
45345;BME280;31078;48.304;11.896;2023-08-20T09:59:47;71600.47;;;-145.00;33.83
45345;BME280;31078;48.304;11.896;2023-08-20T10:02:16;71594.22;;;-145.00;34.45
45345;BME280;31078;48.304;11.896;2023-08-20T10:04:43;71565.09;;;-145.00;34.50
45345;BME280;31078;48.304;11.896;2023-08-20T10:07:10;71548.44;;;-145.00;34.07
45345;BME280;31078;48.304;11.896;2023-08-20T10:09:38;71548.44;;;-145.00;34.32
45345;BME280;31078;48.304;11.896;2023-08-20T10:12:05;71523.47;;;-145.00;33.82
45345;BME280;31078;48.304;11.896;2023-08-20T10:14:32;71521.38;;;-145.00;33.02
45345;BME280;31078;48.304;11.896;2023-08-20T10:16:59;71519.31;;;-145.00;33.30
45345;BME280;31078;48.304;11.896;2023-08-20T10:19:33;71502.66;;;-145.00;33.62
45345;BME280;31078;48.304;11.896;2023-08-20T10:22:01;71498.50;;;-145.00;34.12
45345;BME280;31078;48.304;11.896;2023-08-20T10:24:28;71506.81;;;-145.00;33.18
45345;BME280;31078;48.304;11.896;2023-08-20T10:27:08;71540.13;;;-145.00;34.16
45345;BME280;31078;48.304;11.896;2023-08-20T10:29:35;71519.31;;;-145.00;33.21
45345;BME280;31078;48.304;11.896;2023-08-20T10:32:04;71506.81;;;-145.00;33.72
45345;BME280;31078;48.304;11.896;2023-08-20T10:34:33;71515.16;;;-145.00;33.30
45345;BME280;31078;48.304;11.896;2023-08-20T10:37:02;71527.63;;;-145.00;33.16
45345;BME280;31078;48.304;11.896;2023-08-20T10:39:29;71531.78;;;-145.00;33.91
45345;BME280;31078;48.304;11.896;2023-08-20T10:42:08;71617.13;;;-145.00;34.39
45345;BME280;31078;48.304;11.896;2023-08-20T10:44:56;71556.78;;;-145.00;34.81
45345;BME280;31078;48.304;11.896;2023-08-20T10:47:23;71531.78;;;-145.00;33.21
45345;BME280;31078;48.304;11.896;2023-08-20T10:49:51;71513.06;;;-145.00;32.48
45345;BME280;31078;48.304;11.896;2023-08-20T10:52:18;71486.00;;;-145.00;32.94
45345;BME280;31078;48.304;11.896;2023-08-20T10:54:44;71456.88;;;-145.00;32.97
45345;BME280;31078;48.304;11.896;2023-08-20T10:57:11;71479.78;;;-145.00;32.87
45345;BME280;31078;48.304;11.896;2023-08-20T10:59:39;71502.66;;;-145.00;32.01
45345;BME280;31078;48.304;11.896;2023-08-20T11:02:11;71527.63;;;-145.00;31.97
45345;BME280;31078;48.304;11.896;2023-08-20T11:04:40;71552.59;;;-145.00;32.49
45345;BME280;31078;48.304;11.896;2023-08-20T11:07:08;71550.53;;;-145.00;33.12
45345;BME280;31078;48.304;11.896;2023-08-20T11:09:35;71583.81;;;-145.00;33.21
45345;BME280;31078;48.304;11.896;2023-08-20T11:12:05;71594.22;;;-145.00;32.93
45345;BME280;31078;48.304;11.896;2023-08-20T11:14:32;71615.03;;;-145.00;33.09
45345;BME280;31078;48.304;11.896;2023-08-20T11:16:58;71623.38;;;-145.00;33.36
45345;BME280;31078;48.304;11.896;2023-08-20T11:19:25;71631.69;;;-145.00;32.49
45345;BME280;31078;48.304;11.896;2023-08-20T11:21:52;71615.03;;;-145.00;32.81
45345;BME280;31078;48.304;11.896;2023-08-20T11:24:20;71608.78;;;-145.00;32.64
45345;BME280;31078;48.304;11.896;2023-08-20T11:26:46;71619.19;;;-145.00;32.45
45345;BME280;31078;48.304;11.896;2023-08-20T11:29:14;71648.34;;;-145.00;33.45
45345;BME280;31078;48.304;11.896;2023-08-20T11:31:42;71627.53;;;-145.00;33.33
45345;BME280;31078;48.304;11.896;2023-08-20T11:34:08;71631.69;;;-145.00;33.30
45345;BME280;31078;48.304;11.896;2023-08-20T11:36:35;71621.28;;;-145.00;32.94
45345;BME280;31078;48.304;11.896;2023-08-20T11:39:02;71623.38;;;-145.00;32.32
45345;BME280;31078;48.304;11.896;2023-08-20T11:41:30;71629.59;;;-145.00;33.32
45345;BME280;31078;48.304;11.896;2023-08-20T11:43:57;71640.00;;;-145.00;33.12
45345;BME280;31078;48.304;11.896;2023-08-20T11:46:24;71635.84;;;-145.00;33.11
45345;BME280;31078;48.304;11.896;2023-08-20T11:49:01;71635.84;;;-145.00;32.75
45345;BME280;31078;48.304;11.896;2023-08-20T11:51:28;71640.00;;;-145.00;32.73
45345;BME280;31078;48.304;11.896;2023-08-20T11:53:55;71635.84;;;-145.00;33.11
45345;BME280;31078;48.304;11.896;2023-08-20T11:56:21;71623.38;;;-145.00;32.70
45345;BME280;31078;48.304;11.896;2023-08-20T11:58:51;71623.38;;;-145.00;31.95
45345;BME280;31078;48.304;11.896;2023-08-20T12:01:18;71615.03;;;-145.00;33.07
45345;BME280;31078;48.304;11.896;2023-08-20T12:03:45;71627.53;;;-145.00;32.28
45345;BME280;31078;48.304;11.896;2023-08-20T12:06:17;71623.38;;;-145.00;32.55
45345;BME280;31078;48.304;11.896;2023-08-20T12:08:44;71619.19;;;-145.00;31.75
45345;BME280;31078;48.304;11.896;2023-08-20T12:11:10;71610.88;;;-145.00;31.77
45345;BME280;31078;48.304;11.896;2023-08-20T12:13:37;71627.53;;;-145.00;31.59
45345;BME280;31078;48.304;11.896;2023-08-20T12:16:05;71662.91;;;-145.00;32.72
45345;BME280;31078;48.304;11.896;2023-08-20T12:18:31;71635.84;;;-145.00;32.28
45345;BME280;31078;48.304;11.896;2023-08-20T12:20:58;71619.19;;;-145.00;32.13
45345;BME280;31078;48.304;11.896;2023-08-20T12:23:24;71615.03;;;-145.00;32.24
45345;BME280;31078;48.304;11.896;2023-08-20T12:25:51;71637.94;;;-145.00;31.83
45345;BME280;31078;48.304;11.896;2023-08-20T12:28:18;71619.19;;;-145.00;32.46
45345;BME280;31078;48.304;11.896;2023-08-20T12:30:44;71646.25;;;-145.00;33.07
45345;BME280;31078;48.304;11.896;2023-08-20T12:33:12;71623.38;;;-145.00;32.88